Novi, MI

10:47 PM EST on December 02, 2016 (GMT -0500)
Whispering Meadows - S of 9, E of MB | | Change Station

Elev 853 ft 42.45 °N, 83.45 °W | Updated 1 minute ago

Mostly Cloudy
Mostly Cloudy
33.9 °F
Feels Like 34 °F
N
1.0
Wind Variable Wind from West
Gusts 2.0 mph

Today
High -- | Low -- °F
--% Chance of Precip.
Yesterday
High -- | Low -- °F
Precip. -- in
Pressure 30.19 in
Visibility 10.0 miles
Clouds Mostly Cloudy 2200 ft
Windchill 34 °F
Dew Point 29 °F
Humidity 81%
Rainfall 0.00 in
Snow Depth Not available.
7:45 AM 5:01 PM
Waxing Crescent, 12% visible
SPECI KPTK 030311Z 30008KT 10SM BKN022 01/M03 A3019 RMK AO2 T00111028 $
Pressure 30.19 in
Visibility 10.0 miles
Clouds Mostly Cloudy 2200 ft
Windchill 34 °F
Dew Point 29 °F
Humidity 81%
Rainfall 0.00 in
Snow Depth Not available.
7:45 AM 5:01 PM
Waxing Crescent, 12% visible
SPECI KPTK 030311Z 30008KT 10SM BKN022 01/M03 A3019 RMK AO2 T00111028 $

10-Day Weather Forecast

Almanac

Astronomy

Dec. 02, 2016 Rise Set
Actual Time
Civil Twilight
Nautical Twilight
Astronomical Twilight
Moon
Length of Visible Light
Length of Day
Tomorrow will be .
, % of the Moon is Illuminated

Today's Extremes

State Highs State Lows

Community

WunderPhotos

Upload Photos

1,955,405 photos uploaded!

WunderBlog® & News

Nearby

Air Quality

  Air Quality AQ Index Pollutant
Not available.

Snow Depth

Station Depth Elevation

Earthquake Activity

City Distance Mag. Time & Date
Minimum magnitude displayed is 2.5.

Coastal Water Temperatures

Place Temperature

Stations

Nearby Weather Stations

Station Location Temp. Windchill Dew Point Humidity Wind Precip. Elev Updated Type
                   

Watches & Warnings

There are currently no watches in effect.